Terminal Aerodrome Forecast
Issued by NWS

Home | Current Version | Previous Version | Text Only | Print | Product List | Glossary On
Versions: 1 2 3 4 5 6 7 8 9 10 11 12 13 14 15 16 17 18 19 20 21 22
000
FTUS44 KHGX 181722
TAFCXO
TAF
KCXO 181722Z 1818/1918 23007KT P6SM SCT040
     FM182000 18006KT P6SM FEW060
     FM190200 16004KT P6SM SKC
     FM191000 20003KT P6SM FEW015
     FM191500 23005KT P6SM SCT025=

USA.gov is the U.S. government's official web portal to all federal, state and local government web resources and services.